Time;durP1;ratioP1;P1;durP2;ratioP2;P2;SDS_P1;SDS_P2;PMS_P1;PMS_P2;Temp;Humidity;BMP_temperature;BMP_pressure;BME280_temperature;BME280_humidity;BME280_pressure;Samples;Min_cycle;Max_cycle;Signal;HPM_P1;HPM_P2
2022/11/11 00:00:27;;;;;;;14.77;6.95;;;12.10;99.90;;;;;;5073738;28;20037;-60
2022/11/11 00:02:56;;;;;;;19.33;7.45;;;12.10;99.90;;;;;;5073714;28;20047;-60
2022/11/11 00:05:23;;;;;;;16.33;7.40;;;12.10;99.90;;;;;;5073961;28;20047;-60
2022/11/11 00:07:51;;;;;;;17.45;8.00;;;12.10;99.90;;;;;;5073870;28;20040;-60
2022/11/11 00:10:16;;;;;;;14.63;6.88;;;12.10;99.90;;;;;;5073790;28;20059;-60
2022/11/11 00:12:42;;;;;;;15.18;7.45;;;12.10;99.90;;;;;;5073633;28;20479;-60
2022/11/11 00:15:08;;;;;;;16.02;7.25;;;12.10;99.90;;;;;;5073772;28;20063;-60
2022/11/11 00:25:51;;;;;;;18.38;7.28;;;12.10;99.90;;;;;;5073452;28;20048;-60
2022/11/11 00:28:17;;;;;;;12.70;8.10;;;12.00;99.90;;;;;;5073278;28;20078;-60
2022/11/11 00:30:42;;;;;;;13.32;7.43;;;12.10;99.90;;;;;;5073426;28;20036;-60
2022/11/11 00:33:08;;;;;;;13.45;7.72;;;12.00;99.90;;;;;;5073147;28;20040;-60
2022/11/11 00:35:52;;;;;;;21.92;8.18;;;12.00;99.90;;;;;;5073331;28;20040;-60
2022/11/11 00:41:03;;;;;;;16.33;7.40;;;12.00;99.90;;;;;;5072577;28;20102;-60
2022/11/11 00:43:28;;;;;;;15.52;7.07;;;12.00;99.90;;;;;;5072865;28;20390;-60
2022/11/11 00:50:57;;;;;;;19.48;8.30;;;12.00;99.90;;;;;;5072804;28;20555;-60
2022/11/11 00:51:25;;;;;;;15.45;7.45;;;12.00;99.90;;;;;;5072565;28;20048;-60
2022/11/11 00:53:50;;;;;;;19.23;7.70;;;12.00;99.90;;;;;;5072605;28;20514;-60
2022/11/11 00:56:16;;;;;;;16.92;7.53;;;12.00;99.90;;;;;;5072329;28;20052;-60
2022/11/11 00:58:42;;;;;;;17.48;8.25;;;12.10;99.90;;;;;;5073003;28;20044;-60
2022/11/11 01:01:07;;;;;;;18.17;8.43;;;12.10;99.90;;;;;;5072646;28;20095;-60
2022/11/11 01:03:33;;;;;;;15.05;8.00;;;12.10;99.90;;;;;;5072418;28;20394;-61
2022/11/11 01:06:02;;;;;;;14.82;7.43;;;12.10;99.90;;;;;;5072535;28;20127;-60
2022/11/11 01:08:29;;;;;;;13.50;8.07;;;12.10;99.90;;;;;;5072561;28;20403;-61
2022/11/11 01:10:54;;;;;;;19.98;8.05;;;12.00;99.90;;;;;;5072433;28;20041;-60
2022/11/11 01:13:23;;;;;;;15.13;7.57;;;12.10;99.90;;;;;;5072143;28;20048;-60
2022/11/11 01:15:51;;;;;;;16.23;8.18;;;12.10;99.90;;;;;;5072671;28;20067;-60
2022/11/11 01:18:23;;;;;;;14.77;8.27;;;12.10;99.90;;;;;;5072539;28;20041;-60
2022/11/11 01:20:58;;;;;;;14.90;7.97;;;12.10;99.90;;;;;;5072352;28;20047;-61
2022/11/11 01:23:24;;;;;;;18.92;8.75;;;12.00;99.90;;;;;;5072188;28;20040;-60
2022/11/11 01:25:51;;;;;;;12.15;8.25;;;12.10;99.90;;;;;;5072106;28;20483;-60
2022/11/11 01:28:17;;;;;;;19.10;8.45;;;12.00;99.90;;;;;;5072341;28;20047;-60
2022/11/11 01:30:43;;;;;;;16.25;8.27;;;12.00;99.90;;;;;;5072132;28;20040;-60
2022/11/11 01:33:10;;;;;;;21.13;8.30;;;12.00;99.90;;;;;;5072219;28;20497;-60
2022/11/11 01:35:40;;;;;;;18.45;8.98;;;11.90;99.90;;;;;;5072011;28;20039;-60
2022/11/11 01:38:07;;;;;;;17.15;9.52;;;12.00;99.90;;;;;;5072002;28;20076;-60
2022/11/11 01:40:41;;;;;;;17.98;8.57;;;12.00;99.90;;;;;;5053800;28;20041;-60
2022/11/11 01:43:06;;;;;;;13.35;7.85;;;12.00;99.90;;;;;;5072109;28;20040;-60
2022/11/11 01:45:59;;;;;;;18.77;10.35;;;12.10;99.90;;;;;;5071803;28;20364;-61
2022/11/11 01:51:41;;;;;;;15.55;8.90;;;12.00;99.90;;;;;;5071747;28;20045;-60
2022/11/11 01:54:12;;;;;;;17.00;8.85;;;12.00;99.90;;;;;;5070816;28;20411;-60
2022/11/11 01:56:41;;;;;;;17.08;8.75;;;12.00;99.90;;;;;;5071729;28;20119;-60
2022/11/11 01:59:11;;;;;;;22.25;8.88;;;12.00;99.90;;;;;;5071840;28;20055;-60
2022/11/11 02:01:38;;;;;;;18.10;8.75;;;12.00;99.90;;;;;;5072010;28;20486;-61
2022/11/11 02:06:53;;;;;;;14.52;8.50;;;12.00;99.90;;;;;;5071695;28;20064;-60
2022/11/11 02:09:21;;;;;;;14.63;8.93;;;12.00;99.90;;;;;;5071871;28;20037;-60
2022/11/11 02:14:41;;;;;;;16.80;7.90;;;12.00;99.90;;;;;;5072031;28;20283;-60
2022/11/11 02:17:14;;;;;;;12.93;7.93;;;12.00;99.90;;;;;;5071761;28;20040;-59
2022/11/11 02:19:53;;;;;;;13.70;9.20;;;12.00;99.90;;;;;;5053710;28;20079;-60
2022/11/11 02:22:23;;;;;;;16.30;9.57;;;12.00;99.90;;;;;;5071753;28;20386;-60
2022/11/11 02:24:51;;;;;;;17.98;8.40;;;11.90;99.90;;;;;;5071590;28;20102;-61
2022/11/11 02:27:17;;;;;;;17.92;9.45;;;12.10;99.90;;;;;;5071535;28;20090;-61
2022/11/11 02:29:48;;;;;;;21.42;9.65;;;12.00;99.90;;;;;;5071295;28;20390;-60
2022/11/11 02:32:13;;;;;;;18.38;9.00;;;11.90;99.90;;;;;;5071427;28;20047;-60
2022/11/11 02:34:39;;;;;;;12.10;8.25;;;12.00;99.90;;;;;;5071660;28;20029;-60
2022/11/11 02:37:07;;;;;;;21.65;9.85;;;11.90;99.90;;;;;;5071638;28;20072;-60
2022/11/11 02:39:36;;;;;;;15.73;8.85;;;12.00;99.90;;;;;;5071719;28;20033;-60
2022/11/11 02:42:08;;;;;;;;;;;12.00;99.90;;;;;;5071807;28;20032;-60
2022/11/11 02:44:35;;;;;;;18.65;10.20;;;11.90;99.90;;;;;;5070163;28;19916;-60
2022/11/11 02:47:01;;;;;;;17.55;9.30;;;12.00;99.90;;;;;;5071222;28;20437;-61
2022/11/11 02:49:27;;;;;;;19.75;10.43;;;11.90;99.90;;;;;;5071518;28;20040;-60
2022/11/11 02:51:52;;;;;;;21.10;11.20;;;11.90;99.90;;;;;;5071413;28;20062;-61
2022/11/11 02:54:18;;;;;;;21.40;11.57;;;11.90;99.90;;;;;;5070998;28;20047;-61
2022/11/11 02:59:28;;;;;;;18.38;11.68;;;11.90;99.90;;;;;;5071043;28;20437;-60
2022/11/11 03:01:53;;;;;;;18.30;11.20;;;11.80;99.90;;;;;;5071562;28;20032;-60
2022/11/11 03:04:19;;;;;;;19.70;11.82;;;11.70;99.90;;;;;;5072179;28;20047;-60
2022/11/11 03:06:44;;;;;;;21.55;13.43;;;11.70;99.90;;;;;;5074968;28;20045;-60
2022/11/11 03:09:10;;;;;;;20.48;12.90;;;11.80;99.90;;;;;;5074641;28;20037;-60
2022/11/11 03:11:37;;;;;;;22.25;14.52;;;11.70;99.90;;;;;;5075013;28;20051;-60
2022/11/11 03:14:03;;;;;;;23.15;12.65;;;11.70;99.90;;;;;;5074606;28;20482;-60
2022/11/11 03:19:13;;;;;;;23.65;14.10;;;11.60;99.90;;;;;;5074650;28;20040;-60
2022/11/11 03:21:39;;;;;;;24.35;14.48;;;11.60;99.90;;;;;;5074781;28;20390;-60
2022/11/11 03:24:05;;;;;;;23.92;14.95;;;11.60;99.90;;;;;;5074344;28;20041;-60
2022/11/11 03:26:31;;;;;;;23.83;14.18;;;11.60;99.90;;;;;;5074380;28;20048;-61
2022/11/11 03:28:57;;;;;;;23.75;15.23;;;11.60;99.90;;;;;;5074711;28;20040;-60
2022/11/11 03:31:22;;;;;;;23.40;16.13;;;11.50;99.90;;;;;;5074594;28;20155;-60
2022/11/11 03:33:48;;;;;;;25.02;15.95;;;11.50;99.90;;;;;;5074381;28;20079;-60
2022/11/11 03:36:14;;;;;;;21.50;16.15;;;11.50;99.90;;;;;;5074290;28;20036;-61
2022/11/11 03:38:39;;;;;;;24.83;15.63;;;11.50;99.90;;;;;;5074239;28;20045;-60
2022/11/11 03:41:05;;;;;;;19.45;15.23;;;11.60;99.90;;;;;;5090836;28;20040;-60
2022/11/11 03:43:32;;;;;;;24.25;16.05;;;11.50;99.90;;;;;;5094444;28;20036;-60
2022/11/11 03:46:00;;;;;;;24.70;16.65;;;11.50;99.90;;;;;;5094205;28;20139;-60
2022/11/11 03:48:28;;;;;;;23.20;15.98;;;11.50;99.90;;;;;;5094434;28;20043;-60
2022/11/11 03:50:53;;;;;;;24.75;16.45;;;11.50;99.90;;;;;;5094235;28;20486;-61
2022/11/11 03:53:20;;;;;;;23.85;16.90;;;11.40;99.90;;;;;;5094090;28;20043;-60
2022/11/11 03:55:47;;;;;;;23.90;17.10;;;11.40;99.90;;;;;;5093955;28;20136;-60
2022/11/11 03:58:13;;;;;;;26.25;17.25;;;11.40;99.90;;;;;;5094339;28;20042;-61
2022/11/11 04:00:38;;;;;;;26.00;16.98;;;11.40;99.90;;;;;;5094152;28;20040;-60
2022/11/11 04:11:36;;;;;;;28.35;17.25;;;11.40;99.90;;;;;;5093322;28;20048;-60
2022/11/11 04:16:49;;;;;;;28.08;17.38;;;11.40;99.90;;;;;;5092995;28;20040;-60
2022/11/11 04:21:59;;;;;;;23.35;17.13;;;11.40;99.90;;;;;;5093593;28;20032;-60
2022/11/11 04:27:11;;;;;;;27.75;17.50;;;11.30;99.90;;;;;;5093442;28;20044;-60
2022/11/11 04:29:37;;;;;;;27.05;17.63;;;11.40;99.90;;;;;;5093513;28;20071;-60
2022/11/11 04:34:51;;;;;;;26.45;19.15;;;11.40;99.90;;;;;;5092515;28;20497;-60
2022/11/11 04:37:18;;;;;;;29.70;18.25;;;11.40;99.90;;;;;;5091313;28;20044;-60
2022/11/11 04:42:29;;;;;;;30.00;19.55;;;11.40;99.90;;;;;;5093212;28;20044;-60
2022/11/11 04:47:59;;;;;;;28.58;18.48;;;11.40;99.90;;;;;;5093066;28;20040;-60
2022/11/11 04:50:28;;;;;;;28.95;17.85;;;11.30;99.90;;;;;;5093322;28;20043;-60
2022/11/11 04:52:54;;;;;;;25.58;18.27;;;11.40;99.90;;;;;;5092983;28;20501;-60
2022/11/11 04:58:04;;;;;;;28.85;19.95;;;11.40;99.90;;;;;;5092778;28;20394;-60
2022/11/11 05:00:30;;;;;;;26.17;20.05;;;11.30;99.90;;;;;;5092805;28;20090;-60
2022/11/11 05:03:14;;;;;;;30.83;20.23;;;11.30;99.90;;;;;;5092872;28;20051;-60
2022/11/11 05:11:19;;;;;;;28.10;19.95;;;11.30;99.90;;;;;;5091259;28;20454;-60
2022/11/11 05:22:22;;;;;;;27.70;20.23;;;11.20;99.90;;;;;;5092479;28;20051;-60
2022/11/11 05:27:32;;;;;;;27.67;20.63;;;11.20;99.90;;;;;;5092139;28;20502;-60
2022/11/11 05:29:58;;;;;;;29.63;21.52;;;11.20;99.90;;;;;;5092465;28;20075;-60
2022/11/11 05:32:24;;;;;;;32.25;21.75;;;11.20;99.90;;;;;;5092328;28;20050;-60
2022/11/11 05:34:50;;;;;;;32.85;20.77;;;11.30;99.90;;;;;;5091994;28;20119;-60
2022/11/11 05:37:16;;;;;;;27.42;20.48;;;11.20;99.90;;;;;;5092373;28;20047;-61
2022/11/11 05:39:42;;;;;;;34.53;21.63;;;11.20;99.90;;;;;;5091939;28;20120;-61
2022/11/11 05:42:09;;;;;;;38.75;22.50;;;11.20;99.90;;;;;;5072359;28;20044;-61
2022/11/11 05:44:35;;;;;;;31.05;21.25;;;11.20;99.90;;;;;;5092676;28;20028;-61
2022/11/11 05:47:00;;;;;;;29.73;20.38;;;11.20;99.90;;;;;;5090581;28;20032;-61
2022/11/11 05:49:27;;;;;;;32.85;22.52;;;11.10;99.90;;;;;;5093739;28;20044;-60
2022/11/11 05:51:54;;;;;;;28.60;21.30;;;11.10;99.90;;;;;;5092221;28;20055;-60
2022/11/11 05:54:21;;;;;;;33.55;21.13;;;11.00;99.90;;;;;;5091851;28;20047;-60
2022/11/11 05:56:46;;;;;;;29.98;21.35;;;11.00;99.90;;;;;;5091907;28;20122;-61
2022/11/11 05:59:12;;;;;;;28.88;21.52;;;11.00;99.90;;;;;;5092103;28;20048;-60
2022/11/11 06:01:38;;;;;;;28.05;21.58;;;10.90;99.90;;;;;;5092007;28;20119;-61
2022/11/11 06:04:04;;;;;;;35.13;21.67;;;10.90;99.90;;;;;;5091786;28;20040;-60
2022/11/11 06:06:31;;;;;;;30.75;20.70;;;10.80;99.90;;;;;;5089297;28;20046;-60
2022/11/11 06:08:57;;;;;;;30.75;20.05;;;10.90;99.90;;;;;;5089351;28;20039;-61
2022/11/11 06:11:23;;;;;;;30.98;21.40;;;10.90;99.90;;;;;;5090271;28;20385;-60
2022/11/11 06:13:49;;;;;;;35.30;19.88;;;10.90;99.90;;;;;;5091903;28;20090;-60
2022/11/11 06:16:15;;;;;;;26.00;19.23;;;10.90;99.90;;;;;;5092085;28;20533;-60
2022/11/11 06:18:40;;;;;;;35.80;20.38;;;11.10;99.90;;;;;;5091821;28;20051;-61
2022/11/11 06:21:06;;;;;;;30.40;19.75;;;11.10;99.90;;;;;;5091725;28;20048;-61
2022/11/11 06:23:32;;;;;;;31.02;19.77;;;11.10;99.90;;;;;;5091786;28;20076;-60
2022/11/11 06:26:12;;;;;;;24.88;20.02;;;11.10;99.90;;;;;;5091908;28;20086;-60
2022/11/11 06:28:38;;;;;;;31.52;19.55;;;11.20;99.90;;;;;;5092039;28;20097;-61
2022/11/11 06:31:06;;;;;;;32.38;20.73;;;11.30;99.90;;;;;;5091598;28;20032;-61
2022/11/11 06:33:32;;;;;;;35.40;18.75;;;11.30;99.90;;;;;;5091743;28;20040;-60
2022/11/11 06:35:58;;;;;;;32.30;20.50;;;11.30;99.90;;;;;;5091252;28;20075;-61
2022/11/11 06:38:24;;;;;;;30.77;20.02;;;11.30;99.90;;;;;;5091569;28;20095;-60
2022/11/11 06:40:49;;;;;;;34.55;21.70;;;11.30;99.90;;;;;;5095131;28;20032;-60
2022/11/11 06:43:15;;;;;;;29.73;21.92;;;11.30;99.90;;;;;;5095484;28;20039;-60
2022/11/11 06:45:40;;;;;;;31.70;21.23;;;11.30;99.90;;;;;;5095576;28;20075;-61
2022/11/11 06:48:06;;;;;;;34.92;20.35;;;11.40;99.90;;;;;;5095382;28;20105;-60
2022/11/11 06:50:32;;;;;;;32.13;21.38;;;11.40;99.90;;;;;;5095255;28;20029;-60
2022/11/11 06:53:09;;;;;;;30.85;20.75;;;11.30;99.90;;;;;;5095173;28;20042;-60
2022/11/11 06:55:35;;;;;;;31.30;21.08;;;11.30;99.90;;;;;;5095486;28;20036;-61
2022/11/11 06:58:18;;;;;;;36.25;21.15;;;11.30;99.90;;;;;;5095165;28;20104;-60
2022/11/11 07:00:45;;;;;;;31.55;21.88;;;11.30;99.90;;;;;;5095036;28;20394;-61
2022/11/11 07:03:13;;;;;;;34.55;22.30;;;11.30;99.90;;;;;;5094883;28;20051;-61
2022/11/11 07:05:38;;;;;;;27.20;20.58;;;11.30;99.90;;;;;;5095174;28;20040;-60
2022/11/11 07:08:07;;;;;;;36.85;21.92;;;11.30;99.90;;;;;;5095361;28;20541;-60
2022/11/11 07:10:35;;;;;;;33.60;20.90;;;11.30;99.90;;;;;;5094975;28;20036;-61
2022/11/11 07:13:01;;;;;;;32.50;22.83;;;11.30;99.90;;;;;;5094986;28;20043;-60
2022/11/11 07:15:27;;;;;;;29.25;20.52;;;11.30;99.90;;;;;;5077072;28;20044;-60
2022/11/11 07:17:52;;;;;;;27.92;21.63;;;11.30;99.90;;;;;;5094914;28;20540;-60
2022/11/11 07:20:18;;;;;;;31.05;20.90;;;11.30;99.90;;;;;;5095060;28;20039;-60
2022/11/11 07:22:44;;;;;;;35.03;23.52;;;11.30;99.90;;;;;;5094770;28;20044;-60
2022/11/11 07:25:09;;;;;;;36.42;21.98;;;11.40;99.90;;;;;;5094893;28;20046;-61
2022/11/11 07:27:39;;;;;;;30.20;21.40;;;11.40;99.90;;;;;;5094710;28;20062;-60
2022/11/11 07:30:05;;;;;;;30.70;22.40;;;11.40;99.90;;;;;;5094459;28;20036;-60
2022/11/11 07:32:31;;;;;;;30.30;21.75;;;11.30;99.90;;;;;;5094273;28;20051;-60
2022/11/11 07:34:57;;;;;;;35.78;21.90;;;11.30;99.90;;;;;;5094858;28;20032;-60
2022/11/11 07:37:22;;;;;;;32.70;22.40;;;11.50;99.90;;;;;;5094560;28;20040;-60
2022/11/11 07:39:48;;;;;;;32.10;22.02;;;11.40;99.90;;;;;;5094341;28;20119;-61
2022/11/11 07:42:14;;;;;;;36.47;21.85;;;11.40;99.90;;;;;;5094389;28;20063;-60
2022/11/11 07:44:40;;;;;;;30.63;20.58;;;11.40;99.90;;;;;;5094389;28;20454;-60
2022/11/11 07:47:06;;;;;;;34.20;20.73;;;11.40;99.90;;;;;;5093233;28;20032;-61
2022/11/11 07:49:32;;;;;;;38.30;21.83;;;11.40;99.90;;;;;;5094419;28;20046;-61
2022/11/11 07:51:57;;;;;;;26.45;19.83;;;11.50;99.90;;;;;;5093200;28;20405;-61
2022/11/11 07:54:23;;;;;;;31.40;21.38;;;11.50;99.90;;;;;;5094116;28;20048;-61
2022/11/11 07:56:48;;;;;;;30.90;22.08;;;11.40;99.90;;;;;;5093803;28;20040;-61
2022/11/11 07:59:14;;;;;;;31.02;21.52;;;11.40;99.90;;;;;;5075230;28;20055;-62
2022/11/11 08:01:40;;;;;;;30.02;21.15;;;11.40;99.90;;;;;;5093748;28;20036;-61
2022/11/11 08:04:05;;;;;;;42.40;21.70;;;11.40;99.90;;;;;;5093665;28;20102;-61
2022/11/11 08:06:31;;;;;;;31.10;20.10;;;11.50;99.90;;;;;;5091961;28;20101;-61
2022/11/11 08:08:57;;;;;;;30.40;20.90;;;11.40;99.90;;;;;;5092332;28;20098;-61
2022/11/11 08:14:07;;;;;;;29.17;20.80;;;11.50;99.90;;;;;;5093997;28;20141;-61
2022/11/11 08:16:33;;;;;;;34.45;20.90;;;11.40;99.90;;;;;;5093713;28;20093;-61
2022/11/11 08:18:59;;;;;;;29.55;20.67;;;11.50;99.90;;;;;;5093690;28;20036;-61
2022/11/11 08:21:25;;;;;;;33.05;20.38;;;11.50;99.90;;;;;;5093382;28;20458;-61
2022/11/11 08:23:51;;;;;;;33.85;20.15;;;11.50;99.90;;;;;;5093546;28;20040;-61
2022/11/11 08:26:17;;;;;;;33.08;21.52;;;11.50;99.90;;;;;;5093408;28;20047;-62
2022/11/11 08:28:43;;;;;;;34.42;19.92;;;11.50;99.90;;;;;;5093262;28;20122;-62
2022/11/11 08:31:09;;;;;;;29.48;20.25;;;11.50;99.90;;;;;;5093783;28;20514;-61
2022/11/11 08:33:35;;;;;;;31.13;19.92;;;11.50;99.90;;;;;;5093597;28;20044;-61
2022/11/11 08:36:02;;;;;;;31.13;19.80;;;11.50;99.90;;;;;;5092373;28;20073;-61
2022/11/11 08:38:28;;;;;;;32.70;20.52;;;11.50;99.90;;;;;;5090850;28;20110;-61
2022/11/11 08:40:54;;;;;;;34.05;19.88;;;11.50;99.90;;;;;;5091095;28;20462;-61
2022/11/11 08:43:21;;;;;;;28.17;19.58;;;11.60;99.90;;;;;;5093263;28;20035;-60
2022/11/11 08:45:47;;;;;;;29.73;18.70;;;11.50;99.90;;;;;;5093115;28;20482;-60
2022/11/11 08:48:13;;;;;;;28.15;20.00;;;11.50;99.90;;;;;;5093223;28;20043;-61
2022/11/11 08:50:39;;;;;;;31.20;19.88;;;11.60;99.90;;;;;;5092977;28;20032;-61
2022/11/11 08:53:07;;;;;;;26.88;19.77;;;11.60;99.90;;;;;;5092826;28;20040;-61
2022/11/11 08:55:36;;;;;;;31.63;19.02;;;11.60;99.90;;;;;;5092735;28;20036;-61
2022/11/11 08:58:05;;;;;;;38.70;20.40;;;11.60;99.90;;;;;;5093219;28;20071;-60
2022/11/11 09:00:31;;;;;;;;;;;11.60;99.90;;;;;;5093256;28;20035;-61
2022/11/11 09:03:06;;;;;;;30.27;19.85;;;11.50;99.90;;;;;;5092436;28;19962;-61
2022/11/11 09:05:33;;;;;;;28.00;19.60;;;11.50;99.90;;;;;;5092229;28;20390;-61
2022/11/11 09:08:04;;;;;;;26.88;19.00;;;11.60;99.90;;;;;;5090029;28;20032;-61
2022/11/11 09:10:30;;;;;;;26.33;18.90;;;11.50;99.90;;;;;;5090571;28;20028;-62
2022/11/11 09:12:57;;;;;;;34.53;19.38;;;11.60;99.90;;;;;;5092575;28;20040;-61
2022/11/11 09:15:22;;;;;;;34.00;19.63;;;11.50;99.90;;;;;;5092516;28;20040;-61
2022/11/11 09:17:48;;;;;;;30.15;19.23;;;11.60;99.90;;;;;;5073889;28;20062;-61
2022/11/11 09:20:14;;;;;;;32.47;19.67;;;11.50;99.90;;;;;;5066035;28;20044;-61
2022/11/11 09:22:44;;;;;;;32.80;21.10;;;11.50;99.90;;;;;;5092408;28;20396;-61
2022/11/11 09:25:10;;;;;;;29.25;19.52;;;11.60;99.90;;;;;;5092291;28;20481;-61
2022/11/11 09:27:36;;;;;;;28.88;19.13;;;11.60;99.90;;;;;;5092401;28;20081;-61
2022/11/11 09:30:02;;;;;;;26.13;18.58;;;11.60;99.90;;;;;;5092414;28;20040;-61
2022/11/11 09:32:27;;;;;;;29.48;19.63;;;11.50;99.90;;;;;;5092217;28;20413;-62
2022/11/11 09:34:56;;;;;;;28.30;19.65;;;11.50;99.90;;;;;;5092108;28;20051;-61
2022/11/11 09:37:21;;;;;;;26.08;18.33;;;11.60;99.90;;;;;;5071941;28;20032;-61
2022/11/11 09:39:47;;;;;;;26.88;18.05;;;11.50;99.90;;;;;;5090717;28;20028;-62
2022/11/11 09:42:21;;;;;;;29.23;19.63;;;11.50;99.90;;;;;;5091795;28;20082;-61
2022/11/11 09:45:02;;;;;;;26.90;19.77;;;11.50;99.90;;;;;;5091966;28;20520;-61
2022/11/11 09:47:46;;;;;;;27.10;18.02;;;11.50;99.90;;;;;;5092309;28;20050;-61
2022/11/11 09:50:19;;;;;;;30.23;18.30;;;11.50;99.90;;;;;;5092075;28;20047;-61
2022/11/11 09:52:53;;;;;;;23.42;18.02;;;11.40;99.90;;;;;;5092278;28;20072;-62
2022/11/11 09:55:18;;;;;;;28.10;18.73;;;11.40;99.90;;;;;;5092059;28;20047;-61
2022/11/11 09:57:53;;;;;;;25.92;18.05;;;11.50;99.90;;;;;;5091718;28;20056;-61
2022/11/11 10:00:28;;;;;;;28.02;18.85;;;11.50;99.90;;;;;;5091831;28;20039;-61
2022/11/11 10:03:05;;;;;;;30.83;19.48;;;11.40;99.90;;;;;;5091954;28;20190;-61
2022/11/11 10:05:59;;;;;;;29.02;18.52;;;11.40;99.90;;;;;;5091216;28;20719;-61
2022/11/11 10:09:01;;;;;;;22.50;17.25;;;11.40;99.90;;;;;;5089885;28;20032;-61
2022/11/11 10:11:57;;;;;;;24.05;18.05;;;11.40;99.90;;;;;;4988569;28;20054;-61
2022/11/11 10:14:30;;;;;;;28.50;18.40;;;11.40;99.90;;;;;;4991091;28;20125;-61
2022/11/11 10:17:06;;;;;;;28.55;17.85;;;11.40;99.90;;;;;;4994052;28;20046;-61
2022/11/11 10:20:06;;;;;;;25.52;18.08;;;11.40;99.90;;;;;;4994015;28;20034;-61
2022/11/11 10:22:38;;;;;;;22.60;17.02;;;11.30;99.90;;;;;;4994108;28;20053;-62
2022/11/11 10:25:17;;;;;;;27.48;17.50;;;11.40;99.90;;;;;;4993934;28;20042;-62
2022/11/11 10:27:45;;;;;;;26.58;18.25;;;11.40;99.90;;;;;;4994174;28;20054;-62
2022/11/11 10:30:26;;;;;;;26.83;17.90;;;11.40;99.90;;;;;;4994057;28;20121;-61
2022/11/11 10:33:32;;;;;;;31.20;19.10;;;11.40;99.90;;;;;;4977419;28;20329;-61
2022/11/11 10:36:01;;;;;;;26.50;18.77;;;11.40;99.90;;;;;;4953997;29;20039;-61
2022/11/11 10:38:34;;;;;;;26.67;18.77;;;11.50;99.90;;;;;;4949688;29;20058;-61
2022/11/11 10:41:24;;;;;;;26.17;18.58;;;11.40;99.90;;;;;;4953616;29;20051;-61
2022/11/11 10:43:49;;;;;;;24.73;18.02;;;11.50;99.90;;;;;;4954913;29;20110;-61
2022/11/11 10:46:25;;;;;;;30.67;19.08;;;11.50;99.90;;;;;;4955221;29;20051;-61
2022/11/11 10:49:09;;;;;;;26.63;17.55;;;11.50;99.90;;;;;;5027138;28;20182;-61
2022/11/11 10:52:20;;;;;;;23.42;16.00;;;11.40;99.90;;;;;;5033228;28;20065;-61
2022/11/11 10:54:55;;;;;;;21.42;15.93;;;11.50;99.90;;;;;;4973996;28;20051;-61
2022/11/11 10:57:35;;;;;;;25.02;17.77;;;11.50;99.90;;;;;;4973831;28;20097;-61
2022/11/11 11:00:07;;;;;;;25.00;16.88;;;11.50;99.90;;;;;;4973783;28;20043;-61
2022/11/11 11:02:36;;;;;;;22.25;16.17;;;11.50;99.90;;;;;;4974036;28;20039;-62
2022/11/11 11:05:07;;;;;;;23.27;16.58;;;11.60;99.90;;;;;;4973801;28;20203;-60
2022/11/11 11:07:52;;;;;;;23.95;17.25;;;11.60;99.90;;;;;;4972022;28;20034;-62
2022/11/11 11:10:40;;;;;;;23.83;16.52;;;11.70;99.90;;;;;;4971539;28;20129;-61
2022/11/11 11:13:17;;;;;;;24.13;16.40;;;11.60;99.90;;;;;;4986181;28;20050;-62
2022/11/11 11:15:51;;;;;;;23.95;17.30;;;11.70;99.90;;;;;;4993210;28;20042;-61
2022/11/11 11:18:18;;;;;;;23.20;16.30;;;11.70;99.90;;;;;;4985512;28;20054;-61
2022/11/11 11:21:02;;;;;;;23.70;15.38;;;11.70;99.90;;;;;;4993132;28;20105;-61
2022/11/11 11:23:42;;;;;;;19.58;16.63;;;11.70;99.90;;;;;;4976819;28;20046;-61
2022/11/11 11:26:09;;;;;;;23.27;16.52;;;11.70;99.90;;;;;;4992914;28;20056;-62
2022/11/11 11:28:53;;;;;;;20.70;17.00;;;11.70;99.90;;;;;;4993153;28;20101;-61
2022/11/11 11:31:35;;;;;;;23.33;17.05;;;11.70;99.90;;;;;;5011411;28;20061;-61
2022/11/11 11:34:01;;;;;;;24.33;17.25;;;11.70;99.90;;;;;;5072312;28;20044;-62
2022/11/11 11:36:27;;;;;;;22.48;15.55;;;11.80;99.90;;;;;;5081351;28;20090;-61
2022/11/11 11:38:52;;;;;;;23.25;16.98;;;11.80;99.90;;;;;;5094602;28;20039;-61
2022/11/11 11:41:37;;;;;;;21.70;16.88;;;11.80;99.90;;;;;;5094373;28;20032;-62
2022/11/11 11:44:03;;;;;;;21.13;15.90;;;11.80;99.90;;;;;;5094266;28;20555;-61
2022/11/11 11:46:41;;;;;;;21.42;16.58;;;11.80;99.90;;;;;;5094210;28;20032;-62
2022/11/11 11:49:29;;;;;;;23.08;16.13;;;11.80;99.90;;;;;;5094168;28;20490;-60
2022/11/11 11:52:16;;;;;;;21.35;16.05;;;11.80;99.90;;;;;;5094653;28;20048;-62
2022/11/11 11:54:56;;;;;;;22.40;16.15;;;11.70;99.90;;;;;;5094598;28;20123;-62
2022/11/11 11:57:44;;;;;;;19.42;15.63;;;11.90;99.90;;;;;;5093770;28;20089;-62
2022/11/11 12:00:30;;;;;;;19.10;15.15;;;11.80;99.90;;;;;;5093871;28;20125;-62
2022/11/11 12:03:14;;;;;;;22.63;15.88;;;11.80;99.90;;;;;;5094115;28;20055;-61
2022/11/11 12:05:50;;;;;;;22.27;15.43;;;11.80;99.90;;;;;;5093843;28;20044;-61
2022/11/11 12:08:31;;;;;;;20.23;15.38;;;11.80;99.90;;;;;;5093962;28;20098;-61
2022/11/11 12:11:17;;;;;;;18.02;14.73;;;11.80;99.90;;;;;;5094265;28;20040;-61
2022/11/11 12:14:12;;;;;;;24.05;15.50;;;11.90;99.90;;;;;;5092901;28;20047;-62
2022/11/11 12:16:57;;;;;;;19.92;15.18;;;11.80;99.90;;;;;;5093844;28;20040;-62
2022/11/11 12:19:40;;;;;;;20.35;15.40;;;11.80;99.90;;;;;;5093571;28;20076;-62
2022/11/11 12:22:42;;;;;;;24.42;15.45;;;11.80;99.90;;;;;;5093617;28;20043;-62
2022/11/11 12:25:19;;;;;;;19.17;15.32;;;11.80;99.90;;;;;;5010584;28;20057;-61
2022/11/11 12:28:01;;;;;;;21.58;15.38;;;11.80;99.90;;;;;;5011765;28;20555;-61
2022/11/11 12:30:29;;;;;;;24.17;16.52;;;11.80;99.90;;;;;;5011565;28;20056;-62
2022/11/11 12:33:19;;;;;;;20.38;15.43;;;11.80;99.90;;;;;;5011190;28;20042;-62
2022/11/11 12:36:07;;;;;;;21.75;17.20;;;11.70;99.90;;;;;;5011454;28;20046;-62
2022/11/11 12:38:39;;;;;;;21.20;15.20;;;11.80;99.90;;;;;;5008625;28;20129;-62
2022/11/11 12:41:17;;;;;;;26.08;16.25;;;11.80;99.90;;;;;;4992734;28;20033;-61
2022/11/11 12:43:57;;;;;;;25.90;15.32;;;11.80;99.90;;;;;;5011264;28;20419;-62
2022/11/11 12:46:41;;;;;;;23.95;16.60;;;11.70;99.90;;;;;;5011276;28;20049;-61
2022/11/11 12:49:34;;;;;;;20.95;15.75;;;11.70;99.90;;;;;;5011262;28;20601;-62
2022/11/11 12:52:15;;;;;;;21.38;15.65;;;11.80;99.90;;;;;;5011038;28;20041;-62
2022/11/11 12:55:27;;;;;;;21.45;15.85;;;11.70;99.90;;;;;;5011153;28;20496;-61
2022/11/11 12:58:09;;;;;;;23.90;17.05;;;11.80;99.90;;;;;;4971581;28;20066;-62
2022/11/11 13:00:49;;;;;;;23.70;17.08;;;11.80;99.90;;;;;;4977507;28;20133;-62
2022/11/11 13:03:40;;;;;;;27.05;16.48;;;11.70;99.90;;;;;;5030561;28;20132;-61
2022/11/11 13:06:30;;;;;;;21.90;16.55;;;11.70;99.90;;;;;;5030324;28;20041;-61
2022/11/11 13:09:10;;;;;;;24.95;15.73;;;11.70;99.90;;;;;;5024826;28;20830;-62
2022/11/11 13:11:51;;;;;;;25.35;17.48;;;11.70;99.90;;;;;;5028766;28;20109;-61
2022/11/11 13:14:48;;;;;;;22.77;17.23;;;11.70;99.90;;;;;;5030322;28;20073;-61
2022/11/11 13:17:14;;;;;;;21.25;16.30;;;11.70;99.90;;;;;;5030362;28;20049;-61
2022/11/11 13:19:54;;;;;;;20.80;16.52;;;11.70;99.90;;;;;;5030139;28;20038;-61
2022/11/11 13:22:26;;;;;;;20.85;15.38;;;11.70;99.90;;;;;;5030168;28;20089;-62
2022/11/11 13:24:53;;;;;;;23.05;15.38;;;11.60;99.90;;;;;;5030223;28;20046;-61
2022/11/11 13:27:38;;;;;;;19.73;15.27;;;11.60;99.90;;;;;;5029976;28;20037;-61
2022/11/11 13:30:13;;;;;;;24.42;16.15;;;11.60;99.90;;;;;;5030044;28;20045;-61
2022/11/11 13:32:49;;;;;;;25.80;15.85;;;11.60;99.90;;;;;;5029720;28;20527;-62
2022/11/11 13:35:37;;;;;;;24.27;14.85;;;11.60;99.90;;;;;;5067969;28;20079;-61
2022/11/11 13:38:03;;;;;;;20.27;15.70;;;11.60;99.90;;;;;;5094929;28;20032;-61
2022/11/11 13:40:39;;;;;;;23.20;17.02;;;11.70;99.90;;;;;;5096790;28;20028;-61
2022/11/11 13:43:18;;;;;;;23.13;17.30;;;11.60;99.90;;;;;;5089651;28;20040;-61
2022/11/11 13:45:51;;;;;;;23.00;17.80;;;11.60;99.90;;;;;;5092212;28;20079;-61
2022/11/11 13:48:26;;;;;;;22.90;17.40;;;11.60;99.90;;;;;;5074295;28;20075;-61
2022/11/11 13:50:52;;;;;;;33.67;18.90;;;11.60;99.90;;;;;;5092069;28;20050;-62
2022/11/11 13:53:32;;;;;;;25.60;17.50;;;11.60;99.90;;;;;;5073899;28;20043;-61
2022/11/11 13:56:02;;;;;;;24.73;17.25;;;11.70;99.90;;;;;;5092025;28;20032;-62
2022/11/11 13:58:37;;;;;;;24.45;17.95;;;11.60;99.90;;;;;;5091698;28;20092;-61
2022/11/11 14:01:07;;;;;;;24.10;17.42;;;11.60;99.90;;;;;;5092036;28;20138;-61
2022/11/11 14:03:35;;;;;;;28.42;18.80;;;11.70;99.90;;;;;;5091841;28;20040;-61